Time;durP1;ratioP1;P1;durP2;ratioP2;P2;SDS_P1;SDS_P2;PMS_P1;PMS_P2;Temp;Humidity;BMP_temperature;BMP_pressure;BME280_temperature;BME280_humidity;BME280_pressure;Samples;Min_cycle;Max_cycle;Signal;HPM_P1;HPM_P2
2021/09/15 00:02:11;;;;;;;;;;;;;;;;;;5027997;28;19917;-83
2021/09/15 00:04:36;;;;;;;;;;;;;;;;;;5026982;28;19917;-83
2021/09/15 00:07:01;;;;;;;;;;;;;;;;;;5027437;28;20493;-83
2021/09/15 00:09:27;;;;;;;;;;;;;;;;;;5027757;28;19913;-83
2021/09/15 00:11:52;;;;;;;;;;;;;;;;;;5015077;28;20029;-83
2021/09/15 00:14:17;;;;;;;;;;;;;;;;;;5008145;28;19929;-83
2021/09/15 00:16:43;;;;;;;;;;;;;;;;;;5026135;28;19917;-83
2021/09/15 00:19:08;;;;;;;;;;;;;;;;;;5025358;28;19943;-82
2021/09/15 00:21:33;;;;;;;;;;;;;;;;;;5016263;28;19917;-83
2021/09/15 00:23:59;;;;;;;;;;;;;;;;;;4978679;28;19913;-83
2021/09/15 00:26:24;;;;;;;;;;;;;;;;;;4978537;28;19917;-83
2021/09/15 00:28:49;;;;;;;;;;;;;;;;;;5028025;28;19915;-83
2021/09/15 00:31:15;;;;;;;;;;;;;;;;;;5031448;28;20004;-83
2021/09/15 00:33:41;;;;;;;;;;;;;;;;;;5030931;28;19915;-83
2021/09/15 00:36:07;;;;;;;;;;;;;;;;;;5024156;28;20372;-82
2021/09/15 00:38:32;;;;;;;;;;;;;;;;;;5011507;28;19924;-83
2021/09/15 00:40:58;;;;;;;;;;;;;;;;;;5011588;28;20392;-83
2021/09/15 00:43:24;;;;;;;;;;;;;;;;;;4998801;28;19952;-83
2021/09/15 00:45:49;;;;;;;;;;;;;;;;;;4998827;28;19920;-83
2021/09/15 00:48:15;;;;;;;;;;;;;;;;;;4981563;28;19921;-82
2021/09/15 00:50:40;;;;;;;;;;;;;;;;;;5020622;28;19914;-83
2021/09/15 00:53:06;;;;;;;;;;;;;;;;;;5011773;28;19922;-83
2021/09/15 00:55:31;;;;;;;;;;;;;;;;;;5026759;28;19913;-83
2021/09/15 00:57:57;;;;;;;;;;;;;;;;;;5030885;28;19949;-83
2021/09/15 01:00:23;;;;;;;;;;;;;;;;;;5031332;28;19953;-83
2021/09/15 01:02:48;;;;;;;;;;;;;;;;;;5030735;28;19976;-83
2021/09/15 01:05:14;;;;;;;;;;;;;;;;;;5025014;28;19984;-83
2021/09/15 01:07:39;;;;;;;;;;;;;;;;;;4994930;28;19913;-83
2021/09/15 01:10:04;;;;;;;;;;;;;;;;;;5011373;28;19920;-83
2021/09/15 01:12:30;;;;;;;;;;;;;;;;;;5010730;28;19924;-84
2021/09/15 01:14:55;;;;;;;;;;;;;;;;;;5018639;28;19948;-84
2021/09/15 01:17:20;;;;;;;;;;;;;;;;;;5029096;28;19964;-83
2021/09/15 01:19:46;;;;;;;;;;;;;;;;;;5028519;28;19949;-83
2021/09/15 01:22:11;;;;;;;;;;;;;;;;;;5011027;28;19914;-83
2021/09/15 01:24:37;;;;;;;;;;;;;;;;;;5010859;28;19921;-83
2021/09/15 01:27:02;;;;;;;;;;;;;;;;;;5021833;28;19937;-83
2021/09/15 01:29:29;;;;;;;;;;;;;;;;;;5003747;28;20375;-82
2021/09/15 01:31:55;;;;;;;;;;;;;;;;;;4981473;28;19921;-83
2021/09/15 01:34:21;;;;;;;;;;;;;;;;;;4980930;28;19920;-82
2021/09/15 01:36:46;;;;;;;;;;;;;;;;;;5013185;28;19917;-82
2021/09/15 01:39:11;;;;;;;;;;;;;;;;;;5035795;28;20388;-82
2021/09/15 01:41:36;;;;;;;;;;;;;;;;;;5009415;28;19957;-82
2021/09/15 01:44:02;;;;;;;;;;;;;;;;;;5010465;28;19965;-82
2021/09/15 01:46:27;;;;;;;;;;;;;;;;;;5023493;28;19917;-82
2021/09/15 01:48:52;;;;;;;;;;;;;;;;;;5029098;28;20406;-83
2021/09/15 01:51:18;;;;;;;;;;;;;;;;;;5022573;28;19927;-82
2021/09/15 01:53:43;;;;;;;;;;;;;;;;;;5024761;28;19917;-81
2021/09/15 01:56:08;;;;;;;;;;;;;;;;;;4997671;28;19917;-81
2021/09/15 01:58:34;;;;;;;;;;;;;;;;;;4980585;28;20454;-81
2021/09/15 02:00:59;;;;;;;;;;;;;;;;;;4980446;28;19925;-81
2021/09/15 02:03:24;;;;;;;;;;;;;;;;;;5012844;28;19964;-82
2021/09/15 02:05:50;;;;;;;;;;;;;;;;;;5013517;28;19913;-81
2021/09/15 02:08:15;;;;;;;;;;;;;;;;;;5012829;28;19928;-82
2021/09/15 02:10:40;;;;;;;;;;;;;;;;;;4980753;28;19936;-82
2021/09/15 02:13:06;;;;;;;;;;;;;;;;;;4979990;28;19925;-82
2021/09/15 02:15:31;;;;;;;;;;;;;;;;;;5021575;28;19917;-82
2021/09/15 02:17:56;;;;;;;;;;;;;;;;;;5012192;28;19917;-82
2021/09/15 02:20:22;;;;;;;;;;;;;;;;;;4996547;28;19917;-82
2021/09/15 02:22:47;;;;;;;;;;;;;;;;;;4996593;28;20273;-82
2021/09/15 02:25:13;;;;;;;;;;;;;;;;;;5013875;28;19917;-82
2021/09/15 02:27:38;;;;;;;;;;;;;;;;;;5025357;28;19917;-82
2021/09/15 02:30:03;;;;;;;;;;;;;;;;;;5029499;28;19932;-82
2021/09/15 02:32:29;;;;;;;;;;;;;;;;;;5022332;28;19921;-82
2021/09/15 02:34:54;;;;;;;;;;;;;;;;;;5029174;28;20375;-82
2021/09/15 02:37:20;;;;;;;;;;;;;;;;;;5028918;28;19917;-82
2021/09/15 02:39:45;;;;;;;;;;;;;;;;;;5029201;28;19949;-83
2021/09/15 02:42:10;;;;;;;;;;;;;;;;;;5018994;28;20003;-82
2021/09/15 02:44:35;;;;;;;;;;;;;;;;;;5009318;28;20007;-82
2021/09/15 02:47:01;;;;;;;;;;;;;;;;;;5008736;28;19968;-82
2021/09/15 02:49:29;;;;;;;;;;;;;;;;;;5009188;28;19914;-82
2021/09/15 02:51:55;;;;;;;;;;;;;;;;;;5009641;28;19952;-82
2021/09/15 02:54:20;;;;;;;;;;;;;;;;;;5024003;28;19956;-81
2021/09/15 02:56:45;;;;;;;;;;;;;;;;;;5032080;28;19917;-82
2021/09/15 02:59:11;;;;;;;;;;;;;;;;;;5024332;28;19918;-82
2021/09/15 03:01:36;;;;;;;;;;;;;;;;;;4993207;28;19928;-82
2021/09/15 03:04:01;;;;;;;;;;;;;;;;;;4996002;28;20004;-82
2021/09/15 03:06:27;;;;;;;;;;;;;;;;;;4995786;28;19964;-82
2021/09/15 03:08:52;;;;;;;;;;;;;;;;;;4995957;28;19914;-82
2021/09/15 03:11:17;;;;;;;;;;;;;;;;;;4979288;28;19917;-82
2021/09/15 03:13:45;;;;;;;;;;;;;;;;;;4995576;28;19925;-82
2021/09/15 03:16:11;;;;;;;;;;;;;;;;;;4990075;28;20051;-82
2021/09/15 03:18:36;;;;;;;;;;;;;;;;;;5010301;28;20000;-82
2021/09/15 03:21:02;;;;;;;;;;;;;;;;;;5009313;28;19988;-81
2021/09/15 03:23:27;;;;;;;;;;;;;;;;;;4995312;28;19953;-82
2021/09/15 03:25:52;;;;;;;;;;;;;;;;;;5029988;28;19920;-82
2021/09/15 03:28:18;;;;;;;;;;;;;;;;;;5015046;28;20027;-82
2021/09/15 03:30:43;;;;;;;;;;;;;;;;;;5014792;28;20037;-82
2021/09/15 03:33:08;;;;;;;;;;;;;;;;;;4999549;28;19917;-82
2021/09/15 03:35:34;;;;;;;;;;;;;;;;;;4978757;28;20008;-82
2021/09/15 03:38:00;;;;;;;;;;;;;;;;;;4995185;28;19972;-82
2021/09/15 03:40:25;;;;;;;;;;;;;;;;;;4995397;28;19971;-82
2021/09/15 03:42:51;;;;;;;;;;;;;;;;;;5011078;28;20342;-82
2021/09/15 03:45:16;;;;;;;;;;;;;;;;;;5014295;28;19918;-82
2021/09/15 03:47:41;;;;;;;;;;;;;;;;;;5008248;28;20300;-82
2021/09/15 03:50:07;;;;;;;;;;;;;;;;;;5008443;28;19918;-82
2021/09/15 03:52:32;;;;;;;;;;;;;;;;;;5008214;28;20008;-82
2021/09/15 03:54:57;;;;;;;;;;;;;;;;;;5013820;28;20720;-81
2021/09/15 03:57:23;;;;;;;;;;;;;;;;;;5023327;28;19979;-81
2021/09/15 03:59:48;;;;;;;;;;;;;;;;;;5012216;28;20019;-82
2021/09/15 04:02:14;;;;;;;;;;;;;;;;;;4995984;28;20292;-81
2021/09/15 04:04:39;;;;;;;;;;;;;;;;;;5005907;28;20033;-81
2021/09/15 04:07:04;;;;;;;;;;;;;;;;;;4994246;28;20003;-80
2021/09/15 04:09:30;;;;;;;;;;;;;;;;;;4978893;28;20299;-83
2021/09/15 04:11:55;;;;;;;;;;;;;;;;;;4994280;28;19996;-84
2021/09/15 04:14:22;;;;;;;;;;;;;;;;;;4978280;28;19922;-83
2021/09/15 04:16:48;;;;;;;;;;;;;;;;;;5027633;28;19920;-83
2021/09/15 04:19:13;;;;;;;;;;;;;;;;;;5012961;28;20391;-85
2021/09/15 04:21:40;;;;;;;;;;;;;;;;;;5011021;28;19921;-84
2021/09/15 04:32:10;;;;;;;;;;;;;;;;;;5011929;28;19909;-86
2021/09/15 04:34:36;;;;;;;;;;;;;;;;;;5010675;28;19987;-86
2021/09/15 04:37:01;;;;;;;;;;;;;;;;;;5016159;28;19917;-84
2021/09/15 04:39:28;;;;;;;;;;;;;;;;;;5027148;28;19917;-85
2021/09/15 04:41:54;;;;;;;;;;;;;;;;;;5021655;28;19917;-86
2021/09/15 04:44:20;;;;;;;;;;;;;;;;;;5015733;28;19917;-85
2021/09/15 04:46:46;;;;;;;;;;;;;;;;;;5027144;28;19918;-85
2021/09/15 04:49:11;;;;;;;;;;;;;;;;;;4995747;28;19925;-86
2021/09/15 04:51:36;;;;;;;;;;;;;;;;;;5030923;28;19913;-86
2021/09/15 04:54:02;;;;;;;;;;;;;;;;;;5027873;28;20327;-86
2021/09/15 04:56:28;;;;;;;;;;;;;;;;;;5010797;28;19917;-86
2021/09/15 04:58:54;;;;;;;;;;;;;;;;;;4979028;28;20489;-86
2021/09/15 05:01:20;;;;;;;;;;;;;;;;;;4966753;28;19925;-86
2021/09/15 05:03:46;;;;;;;;;;;;;;;;;;5029330;28;19924;-85
2021/09/15 05:06:11;;;;;;;;;;;;;;;;;;5024914;28;19964;-86
2021/09/15 05:08:37;;;;;;;;;;;;;;;;;;4978652;28;19918;-85
2021/09/15 05:11:02;;;;;;;;;;;;;;;;;;4993508;28;19918;-86
2021/09/15 05:13:27;;;;;;;;;;;;;;;;;;5027564;28;19972;-85
2021/09/15 05:15:52;;;;;;;;;;;;;;;;;;5029180;28;20391;-85
2021/09/15 05:18:19;;;;;;;;;;;;;;;;;;5030972;28;19913;-86
2021/09/15 05:20:44;;;;;;;;;;;;;;;;;;5031115;28;20000;-85
2021/09/15 05:23:09;;;;;;;;;;;;;;;;;;5027620;28;20016;-85
2021/09/15 05:25:35;;;;;;;;;;;;;;;;;;4981446;28;19920;-84
2021/09/15 05:28:00;;;;;;;;;;;;;;;;;;4980985;28;19917;-83
2021/09/15 05:30:26;;;;;;;;;;;;;;;;;;4979540;28;19925;-83
2021/09/15 05:32:51;;;;;;;;;;;;;;;;;;4979429;28;20346;-84
2021/09/15 05:35:16;;;;;;;;;;;;;;;;;;4980245;28;19921;-84
2021/09/15 05:37:42;;;;;;;;;;;;;;;;;;4980791;28;19918;-84
2021/09/15 05:40:08;;;;;;;;;;;;;;;;;;4977104;28;20311;-84
2021/09/15 05:42:33;;;;;;;;;;;;;;;;;;4997538;28;19984;-83
2021/09/15 05:45:02;;;;;;;;;;;;;;;;;;4981395;28;19921;-84
2021/09/15 05:47:27;;;;;;;;;;;;;;;;;;4981210;28;20307;-84
2021/09/15 05:49:53;;;;;;;;;;;;;;;;;;4981156;28;19913;-83
2021/09/15 05:52:18;;;;;;;;;;;;;;;;;;4981014;28;19928;-84
2021/09/15 05:54:43;;;;;;;;;;;;;;;;;;4975835;28;19929;-84
2021/09/15 05:57:09;;;;;;;;;;;;;;;;;;5025647;28;19923;-83
2021/09/15 05:59:34;;;;;;;;;;;;;;;;;;5029449;28;19989;-83
2021/09/15 06:01:59;;;;;;;;;;;;;;;;;;5029378;28;19913;-83
2021/09/15 06:04:25;;;;;;;;;;;;;;;;;;5023983;28;19917;-83
2021/09/15 06:06:50;;;;;;;;;;;;;;;;;;5009687;28;20435;-83
2021/09/15 06:09:16;;;;;;;;;;;;;;;;;;5014682;28;19928;-83
2021/09/15 06:11:41;;;;;;;;;;;;;;;;;;5012896;28;19924;-84
2021/09/15 06:14:06;;;;;;;;;;;;;;;;;;5025000;28;19952;-84
2021/09/15 06:16:31;;;;;;;;;;;;;;;;;;4996503;28;19913;-83
2021/09/15 06:18:57;;;;;;;;;;;;;;;;;;4980015;28;19917;-84
2021/09/15 06:21:22;;;;;;;;;;;;;;;;;;4979318;28;20079;-84
2021/09/15 06:23:51;;;;;;;;;;;;;;;;;;5022390;28;19918;-85
2021/09/15 06:26:17;;;;;;;;;;;;;;;;;;4980803;28;20019;-83
2021/09/15 06:28:42;;;;;;;;;;;;;;;;;;5019381;28;19988;-84
2021/09/15 06:31:07;;;;;;;;;;;;;;;;;;4980114;28;19924;-83
2021/09/15 06:33:33;;;;;;;;;;;;;;;;;;5029239;28;19954;-83
2021/09/15 06:35:58;;;;;;;;;;;;;;;;;;5013822;28;19933;-84
2021/09/15 06:38:24;;;;;;;;;;;;;;;;;;5012318;28;19927;-84
2021/09/15 06:40:49;;;;;;;;;;;;;;;;;;4996591;28;19921;-83
2021/09/15 06:43:14;;;;;;;;;;;;;;;;;;5012636;28;19976;-83
2021/09/15 06:45:40;;;;;;;;;;;;;;;;;;5012711;28;19919;-83
2021/09/15 06:48:05;;;;;;;;;;;;;;;;;;5012737;28;19928;-83
2021/09/15 06:50:30;;;;;;;;;;;;;;;;;;5011476;28;19956;-83
2021/09/15 06:52:56;;;;;;;;;;;;;;;;;;5045095;28;19925;-83
2021/09/15 06:55:23;;;;;;;;;;;;;;;;;;5012593;28;19920;-83
2021/09/15 06:57:48;;;;;;;;;;;;;;;;;;4980253;28;19936;-83
2021/09/15 07:00:14;;;;;;;;;;;;;;;;;;4993023;28;19921;-83
2021/09/15 07:02:39;;;;;;;;;;;;;;;;;;5032375;28;19952;-83
2021/09/15 07:05:05;;;;;;;;;;;;;;;;;;5010457;28;19922;-84
2021/09/15 07:07:30;;;;;;;;;;;;;;;;;;5008303;28;19914;-83
2021/09/15 07:09:56;;;;;;;;;;;;;;;;;;5008844;28;19917;-83
2021/09/15 07:12:22;;;;;;;;;;;;;;;;;;5011993;28;19938;-82
2021/09/15 07:14:47;;;;;;;;;;;;;;;;;;5028391;28;19917;-82
2021/09/15 07:17:13;;;;;;;;;;;;;;;;;;5028301;28;19913;-83
2021/09/15 07:19:38;;;;;;;;;;;;;;;;;;5039050;28;20378;-83
2021/09/15 07:22:03;;;;;;;;;;;;;;;;;;5024149;28;19971;-83
2021/09/15 07:24:28;;;;;;;;;;;;;;;;;;5044938;28;20406;-83
2021/09/15 07:26:54;;;;;;;;;;;;;;;;;;5029869;28;20402;-82
2021/09/15 07:29:19;;;;;;;;;;;;;;;;;;4979028;28;19925;-83
2021/09/15 07:31:44;;;;;;;;;;;;;;;;;;5028429;28;20000;-83
2021/09/15 07:34:10;;;;;;;;;;;;;;;;;;5028029;28;19920;-83
2021/09/15 07:36:35;;;;;;;;;;;;;;;;;;5019035;28;19956;-84
2021/09/15 07:39:00;;;;;;;;;;;;;;;;;;5007591;28;19914;-85
2021/09/15 07:41:26;;;;;;;;;;;;;;;;;;5008624;28;20352;-84
2021/09/15 07:43:52;;;;;;;;;;;;;;;;;;5008332;28;19917;-84
2021/09/15 07:46:21;;;;;;;;;;;;;;;;;;5011691;28;19918;-83
2021/09/15 07:48:47;;;;;;;;;;;;;;;;;;5011021;28;19917;-83
2021/09/15 07:51:12;;;;;;;;;;;;;;;;;;5009632;28;19924;-84
2021/09/15 07:53:39;;;;;;;;;;;;;;;;;;5008074;28;19917;-85
2021/09/15 07:56:04;;;;;;;;;;;;;;;;;;5016057;28;19932;-84
2021/09/15 07:58:29;;;;;;;;;;;;;;;;;;5011457;28;19913;-84
2021/09/15 08:00:55;;;;;;;;;;;;;;;;;;4995460;28;20007;-85
2021/09/15 08:03:23;;;;;;;;;;;;;;;;;;5011350;28;19917;-85
2021/09/15 08:05:49;;;;;;;;;;;;;;;;;;5009473;28;19914;-84
2021/09/15 08:08:14;;;;;;;;;;;;;;;;;;4996442;28;19921;-84
2021/09/15 08:10:40;;;;;;;;;;;;;;;;;;5010988;28;19917;-84
2021/09/15 08:13:05;;;;;;;;;;;;;;;;;;4976311;28;19925;-83
2021/09/15 08:15:31;;;;;;;;;;;;;;;;;;5010659;28;19917;-83
2021/09/15 08:17:56;;;;;;;;;;;;;;;;;;5010437;28;20394;-83
2021/09/15 08:20:21;;;;;;;;;;;;;;;;;;5043437;28;19925;-82
2021/09/15 08:22:48;;;;;;;;;;;;;;;;;;5011519;28;19913;-86
2021/09/15 08:25:14;;;;;;;;;;;;;;;;;;5019451;28;19959;-87
2021/09/15 08:27:40;;;;;;;;;;;;;;;;;;4977900;28;19921;-85
2021/09/15 08:30:07;;;;;;;;;;;;;;;;;;5011380;28;19972;-84
2021/09/15 08:32:34;;;;;;;;;;;;;;;;;;5011118;28;19920;-85
2021/09/15 08:34:59;;;;;;;;;;;;;;;;;;5010998;28;19917;-84
2021/09/15 08:37:24;;;;;;;;;;;;;;;;;;5011009;28;19922;-85
2021/09/15 08:39:51;;;;;;;;;;;;;;;;;;5011451;28;19917;-85
2021/09/15 08:42:16;;;;;;;;;;;;;;;;;;5011397;28;19921;-85
2021/09/15 08:44:42;;;;;;;;;;;;;;;;;;5011332;28;20394;-84
2021/09/15 08:47:07;;;;;;;;;;;;;;;;;;5013034;28;19971;-84
2021/09/15 08:49:33;;;;;;;;;;;;;;;;;;4974965;28;19920;-84
2021/09/15 08:51:58;;;;;;;;;;;;;;;;;;4991012;28;19917;-83
2021/09/15 08:54:23;;;;;;;;;;;;;;;;;;5014035;28;19921;-83
2021/09/15 08:56:49;;;;;;;;;;;;;;;;;;5013653;28;19921;-83
2021/09/15 08:59:14;;;;;;;;;;;;;;;;;;5031110;28;19920;-82
2021/09/15 09:01:39;;;;;;;;;;;;;;;;;;5018182;28;19964;-83
2021/09/15 09:04:05;;;;;;;;;;;;;;;;;;5030190;28;20016;-83
2021/09/15 09:06:32;;;;;;;;;;;;;;;;;;5031099;28;19921;-84
2021/09/15 09:08:58;;;;;;;;;;;;;;;;;;5013592;28;20269;-83
2021/09/15 09:11:27;;;;;;;;;;;;;;;;;;5027305;28;19964;-85
2021/09/15 09:13:56;;;;;;;;;;;;;;;;;;5014369;28;19929;-85
2021/09/15 09:16:38;;;;;;;;;;;;;;;;;;4991542;28;19924;-86
2021/09/15 09:19:07;;;;;;;;;;;;;;;;;;5030596;28;19913;-84
2021/09/15 09:21:33;;;;;;;;;;;;;;;;;;5027688;28;19923;-84
2021/09/15 09:23:59;;;;;;;;;;;;;;;;;;5011437;28;19913;-83
2021/09/15 09:26:44;;;;;;;;;;;;;;;;;;5013836;28;20359;-84
2021/09/15 09:29:10;;;;;;;;;;;;;;;;;;5023132;28;19917;-83
2021/09/15 09:31:35;;;;;;;;;;;;;;;;;;5014062;28;19913;-83
2021/09/15 09:34:03;;;;;;;;;;;;;;;;;;5014027;28;19967;-84
2021/09/15 09:36:28;;;;;;;;;;;;;;;;;;5013783;28;19913;-84
2021/09/15 09:38:53;;;;;;;;;;;;;;;;;;5013644;28;19917;-83
2021/09/15 09:41:22;;;;;;;;;;;;;;;;;;5013834;28;19921;-83
2021/09/15 09:43:47;;;;;;;;;;;;;;;;;;5013988;28;20307;-83
2021/09/15 09:46:13;;;;;;;;;;;;;;;;;;5030010;28;19967;-83
2021/09/15 09:48:39;;;;;;;;;;;;;;;;;;5013753;28;19913;-83
2021/09/15 09:51:26;;;;;;;;;;;;;;;;;;5013537;28;20395;-83
2021/09/15 09:54:05;;;;;;;;;;;;;;;;;;5046133;28;19913;-83
2021/09/15 09:56:31;;;;;;;;;;;;;;;;;;4981362;28;19924;-83
2021/09/15 09:58:56;;;;;;;;;;;;;;;;;;4997186;28;19913;-83
2021/09/15 10:01:21;;;;;;;;;;;;;;;;;;4979255;28;19964;-83
2021/09/15 10:03:46;;;;;;;;;;;;;;;;;;5013363;28;20007;-83
2021/09/15 10:06:12;;;;;;;;;;;;;;;;;;5013234;28;19963;-83
2021/09/15 10:08:37;;;;;;;;;;;;;;;;;;5030136;28;19921;-83
2021/09/15 10:11:02;;;;;;;;;;;;;;;;;;5012951;28;19913;-83
2021/09/15 10:13:28;;;;;;;;;;;;;;;;;;5013658;28;19921;-84
2021/09/15 10:15:55;;;;;;;;;;;;;;;;;;5013030;28;19953;-83
2021/09/15 10:18:22;;;;;;;;;;;;;;;;;;5013485;28;19956;-83
2021/09/15 10:20:51;;;;;;;;;;;;;;;;;;5012932;28;19917;-83
2021/09/15 10:23:33;;;;;;;;;;;;;;;;;;5013161;28;19924;-83
2021/09/15 10:25:59;;;;;;;;;;;;;;;;;;5029660;28;20017;-83
2021/09/15 10:28:24;;;;;;;;;;;;;;;;;;5029774;28;20379;-83
2021/09/15 10:30:50;;;;;;;;;;;;;;;;;;5012512;28;19920;-84
2021/09/15 10:33:34;;;;;;;;;;;;;;;;;;5013185;28;19918;-83
2021/09/15 10:36:00;;;;;;;;;;;;;;;;;;5012663;28;20408;-83
2021/09/15 10:38:44;;;;;;;;;;;;;;;;;;5012536;28;19917;-83
2021/09/15 10:41:28;;;;;;;;;;;;;;;;;;5012789;28;19927;-82
2021/09/15 10:44:03;;;;;;;;;;;;;;;;;;5028895;28;20399;-82
2021/09/15 10:46:28;;;;;;;;;;;;;;;;;;5012695;28;19913;-82
2021/09/15 10:49:12;;;;;;;;;;;;;;;;;;5029474;28;20462;-83
2021/09/15 10:51:37;;;;;;;;;;;;;;;;;;5012691;28;20383;-83
2021/09/15 10:54:03;;;;;;;;;;;;;;;;;;5012610;28;20014;-83
2021/09/15 10:56:35;;;;;;;;;;;;;;;;;;5027527;28;19925;-83
2021/09/15 10:59:00;;;;;;;;;;;;;;;;;;5028279;28;20368;-83
2021/09/15 11:01:35;;;;;;;;;;;;;;;;;;5028845;28;20458;-83
2021/09/15 11:04:01;;;;;;;;;;;;;;;;;;5028695;28;20012;-83
2021/09/15 11:06:26;;;;;;;;;;;;;;;;;;5028615;28;19964;-83
2021/09/15 11:08:52;;;;;;;;;;;;;;;;;;5027338;28;19998;-83
2021/09/15 11:11:20;;;;;;;;;;;;;;;;;;5010822;28;19917;-83
2021/09/15 11:13:46;;;;;;;;;;;;;;;;;;5026885;28;19943;-83
2021/09/15 11:16:26;;;;;;;;;;;;;;;;;;5028134;28;19921;-83
2021/09/15 11:19:10;;;;;;;;;;;;;;;;;;5015453;28;19919;-84
2021/09/15 11:21:40;;;;;;;;;;;;;;;;;;5015551;28;20015;-83
2021/09/15 11:24:14;;;;;;;;;;;;;;;;;;5008190;28;19914;-84
2021/09/15 11:26:44;;;;;;;;;;;;;;;;;;5007860;28;19921;-82
2021/09/15 11:29:09;;;;;;;;;;;;;;;;;;4984237;28;19944;-82
2021/09/15 11:31:35;;;;;;;;;;;;;;;;;;5024850;28;19925;-82
2021/09/15 11:34:07;;;;;;;;;;;;;;;;;;4992095;28;20293;-81
2021/09/15 11:36:33;;;;;;;;;;;;;;;;;;4991811;28;19917;-82
2021/09/15 11:38:58;;;;;;;;;;;;;;;;;;4991874;28;19920;-83
2021/09/15 11:41:24;;;;;;;;;;;;;;;;;;4992201;28;20296;-82
2021/09/15 11:43:49;;;;;;;;;;;;;;;;;;4991280;28;19972;-83
2021/09/15 11:46:16;;;;;;;;;;;;;;;;;;4999362;28;19914;-82
2021/09/15 11:48:43;;;;;;;;;;;;;;;;;;5008303;28;19917;-83
2021/09/15 11:51:18;;;;;;;;;;;;;;;;;;5008651;28;20384;-82
2021/09/15 11:53:49;;;;;;;;;;;;;;;;;;4992179;28;20016;-82
2021/09/15 11:56:18;;;;;;;;;;;;;;;;;;5022080;28;19921;-82
2021/09/15 11:58:44;;;;;;;;;;;;;;;;;;5028336;28;19917;-82
2021/09/15 12:01:12;;;;;;;;;;;;;;;;;;5021238;28;19957;-82
2021/09/15 12:03:37;;;;;;;;;;;;;;;;;;4994825;28;19920;-82
2021/09/15 12:06:03;;;;;;;;;;;;;;;;;;4994672;28;19914;-83
2021/09/15 12:08:28;;;;;;;;;;;;;;;;;;4991247;28;19917;-83
2021/09/15 12:10:54;;;;;;;;;;;;;;;;;;4991297;28;19918;-84
2021/09/15 12:13:27;;;;;;;;;;;;;;;;;;5009184;28;19926;-83
2021/09/15 12:15:52;;;;;;;;;;;;;;;;;;5004053;28;19921;-84
2021/09/15 12:18:22;;;;;;;;;;;;;;;;;;5036066;28;19924;-83
2021/09/15 12:20:48;;;;;;;;;;;;;;;;;;5027969;28;20292;-82
2021/09/15 12:23:14;;;;;;;;;;;;;;;;;;5027324;28;19920;-84
2021/09/15 12:25:50;;;;;;;;;;;;;;;;;;5003824;28;19921;-84
2021/09/15 12:28:25;;;;;;;;;;;;;;;;;;4998195;28;19964;-84
2021/09/15 12:30:50;;;;;;;;;;;;;;;;;;5016492;28;19967;-84
2021/09/15 12:33:25;;;;;;;;;;;;;;;;;;5013971;28;20379;-83
2021/09/15 12:36:10;;;;;;;;;;;;;;;;;;4997683;28;19972;-83
2021/09/15 12:38:47;;;;;;;;;;;;;;;;;;4998073;28;20076;-84
2021/09/15 12:41:13;;;;;;;;;;;;;;;;;;5050491;28;19918;-84
2021/09/15 12:43:38;;;;;;;;;;;;;;;;;;5017557;28;19924;-83
2021/09/15 12:46:03;;;;;;;;;;;;;;;;;;5017502;28;20179;-84
2021/09/15 12:48:29;;;;;;;;;;;;;;;;;;5001588;28;19917;-84
2021/09/15 12:50:54;;;;;;;;;;;;;;;;;;5016313;28;19921;-84
2021/09/15 12:53:20;;;;;;;;;;;;;;;;;;5027669;28;20311;-86
2021/09/15 12:55:47;;;;;;;;;;;;;;;;;;5003541;28;20008;-86
2021/09/15 12:58:22;;;;;;;;;;;;;;;;;;5034263;28;19955;-86
2021/09/15 13:00:48;;;;;;;;;;;;;;;;;;5018796;28;20350;-84
2021/09/15 13:03:15;;;;;;;;;;;;;;;;;;5001438;28;20012;-85
2021/09/15 13:05:42;;;;;;;;;;;;;;;;;;5000934;28;19914;-85
2021/09/15 13:08:24;;;;;;;;;;;;;;;;;;5001152;28;19914;-85
2021/09/15 13:10:58;;;;;;;;;;;;;;;;;;5000915;28;20916;-83
2021/09/15 13:13:24;;;;;;;;;;;;;;;;;;5033280;28;19971;-84
2021/09/15 13:15:49;;;;;;;;;;;;;;;;;;5016770;28;19960;-84
2021/09/15 13:18:15;;;;;;;;;;;;;;;;;;5017144;28;19913;-83
2021/09/15 13:20:40;;;;;;;;;;;;;;;;;;5015838;28;20356;-84
2021/09/15 13:23:06;;;;;;;;;;;;;;;;;;5016265;28;19925;-82
2021/09/15 13:25:31;;;;;;;;;;;;;;;;;;4999691;28;19923;-83
2021/09/15 13:27:56;;;;;;;;;;;;;;;;;;4982184;28;19922;-82
2021/09/15 13:30:22;;;;;;;;;;;;;;;;;;5032749;28;19921;-82
2021/09/15 13:32:47;;;;;;;;;;;;;;;;;;5015572;28;19914;-82
2021/09/15 13:35:12;;;;;;;;;;;;;;;;;;5016477;28;19941;-82
2021/09/15 13:37:39;;;;;;;;;;;;;;;;;;5013897;28;19913;-83
2021/09/15 13:40:04;;;;;;;;;;;;;;;;;;5014116;28;19913;-82
2021/09/15 13:42:30;;;;;;;;;;;;;;;;;;5001924;28;20388;-81
2021/09/15 13:44:55;;;;;;;;;;;;;;;;;;5019211;28;19921;-82
2021/09/15 13:47:21;;;;;;;;;;;;;;;;;;5013367;28;20500;-82
2021/09/15 13:49:47;;;;;;;;;;;;;;;;;;5013566;28;19917;-82
2021/09/15 13:52:13;;;;;;;;;;;;;;;;;;5013939;28;19920;-82
2021/09/15 13:54:42;;;;;;;;;;;;;;;;;;5009173;28;19936;-82
2021/09/15 13:57:07;;;;;;;;;;;;;;;;;;4980867;28;19917;-82
2021/09/15 13:59:33;;;;;;;;;;;;;;;;;;4968684;28;20307;-83
2021/09/15 14:01:58;;;;;;;;;;;;;;;;;;4983519;28;19921;-83
2021/09/15 14:04:24;;;;;;;;;;;;;;;;;;4992912;28;19914;-83
2021/09/15 14:06:49;;;;;;;;;;;;;;;;;;4993370;28;19918;-84
2021/09/15 14:09:14;;;;;;;;;;;;;;;;;;5009755;28;19922;-82
2021/09/15 14:11:40;;;;;;;;;;;;;;;;;;4993352;28;19918;-81
2021/09/15 14:14:05;;;;;;;;;;;;;;;;;;4994500;28;20008;-82
2021/09/15 14:16:30;;;;;;;;;;;;;;;;;;5013061;28;20312;-80
2021/09/15 14:18:56;;;;;;;;;;;;;;;;;;5013010;28;19917;-83
2021/09/15 14:21:21;;;;;;;;;;;;;;;;;;5012168;28;19949;-82
2021/09/15 14:23:46;;;;;;;;;;;;;;;;;;5011705;28;20007;-81
2021/09/15 14:26:12;;;;;;;;;;;;;;;;;;5017762;28;19917;-81
2021/09/15 14:28:37;;;;;;;;;;;;;;;;;;4993273;28;19977;-81
2021/09/15 14:31:03;;;;;;;;;;;;;;;;;;5009857;28;19921;-81
2021/09/15 14:33:28;;;;;;;;;;;;;;;;;;4992738;28;19921;-82
2021/09/15 14:35:53;;;;;;;;;;;;;;;;;;4993008;28;19926;-82
2021/09/15 14:38:19;;;;;;;;;;;;;;;;;;4992902;28;20013;-83
2021/09/15 14:40:44;;;;;;;;;;;;;;;;;;4992732;28;20388;-84
2021/09/15 14:43:09;;;;;;;;;;;;;;;;;;5010014;28;19921;-83
2021/09/15 14:45:35;;;;;;;;;;;;;;;;;;5029320;28;19917;-83
2021/09/15 14:48:00;;;;;;;;;;;;;;;;;;5027642;28;19917;-82
2021/09/15 14:50:25;;;;;;;;;;;;;;;;;;5019628;28;19921;-82
2021/09/15 14:52:51;;;;;;;;;;;;;;;;;;5026712;28;19917;-83
2021/09/15 14:55:16;;;;;;;;;;;;;;;;;;5024498;28;20319;-82
2021/09/15 14:57:41;;;;;;;;;;;;;;;;;;5012165;28;19913;-82
2021/09/15 15:00:07;;;;;;;;;;;;;;;;;;5028823;28;19920;-81
2021/09/15 15:02:32;;;;;;;;;;;;;;;;;;5028375;28;19940;-82
2021/09/15 15:04:58;;;;;;;;;;;;;;;;;;5009853;28;20026;-82
2021/09/15 15:07:23;;;;;;;;;;;;;;;;;;5027584;28;19924;-82
2021/09/15 15:09:51;;;;;;;;;;;;;;;;;;5012183;28;19913;-83
2021/09/15 15:12:17;;;;;;;;;;;;;;;;;;5028483;28;19921;-82
2021/09/15 15:14:43;;;;;;;;;;;;;;;;;;5011826;28;20435;-83
2021/09/15 15:17:08;;;;;;;;;;;;;;;;;;5011939;28;19917;-82
2021/09/15 15:19:34;;;;;;;;;;;;;;;;;;5027811;28;20020;-82
2021/09/15 15:22:00;;;;;;;;;;;;;;;;;;5008220;28;19945;-82
2021/09/15 15:24:25;;;;;;;;;;;;;;;;;;5026084;28;19972;-83
2021/09/15 15:26:54;;;;;;;;;;;;;;;;;;5040736;28;19918;-82
2021/09/15 15:29:20;;;;;;;;;;;;;;;;;;5018999;28;19922;-83
2021/09/15 15:31:45;;;;;;;;;;;;;;;;;;5012096;28;19913;-83
2021/09/15 15:34:10;;;;;;;;;;;;;;;;;;5001631;28;19932;-84
2021/09/15 15:36:36;;;;;;;;;;;;;;;;;;5028019;28;19944;-84
2021/09/15 15:39:02;;;;;;;;;;;;;;;;;;5043971;28;19976;-83
2021/09/15 15:41:27;;;;;;;;;;;;;;;;;;4974791;28;19917;-83
2021/09/15 15:43:53;;;;;;;;;;;;;;;;;;5007086;28;19921;-83
2021/09/15 15:46:18;;;;;;;;;;;;;;;;;;5026529;28;19921;-83
2021/09/15 15:48:44;;;;;;;;;;;;;;;;;;5014759;28;20708;-84
2021/09/15 15:51:09;;;;;;;;;;;;;;;;;;5002378;28;19999;-83
2021/09/15 15:53:34;;;;;;;;;;;;;;;;;;4994840;28;20048;-83
2021/09/15 15:56:01;;;;;;;;;;;;;;;;;;4972991;28;19971;-83
2021/09/15 15:58:27;;;;;;;;;;;;;;;;;;5015957;28;19987;-84
2021/09/15 16:00:52;;;;;;;;;;;;;;;;;;5010008;28;20384;-83
2021/09/15 16:03:17;;;;;;;;;;;;;;;;;;5016783;28;20001;-83
2021/09/15 16:05:43;;;;;;;;;;;;;;;;;;5008835;28;19936;-83
2021/09/15 16:08:09;;;;;;;;;;;;;;;;;;5006345;28;19941;-83
2021/09/15 16:10:34;;;;;;;;;;;;;;;;;;5010724;28;19918;-83
2021/09/15 16:13:00;;;;;;;;;;;;;;;;;;5007730;28;19926;-83
2021/09/15 16:15:25;;;;;;;;;;;;;;;;;;5003913;28;19929;-85
2021/09/15 16:17:50;;;;;;;;;;;;;;;;;;5026037;28;21597;-85
2021/09/15 16:20:17;;;;;;;;;;;;;;;;;;5000553;28;19928;-85
2021/09/15 16:22:43;;;;;;;;;;;;;;;;;;5027943;28;19913;-85
2021/09/15 16:25:10;;;;;;;;;;;;;;;;;;5028002;28;19917;-85
2021/09/15 16:27:35;;;;;;;;;;;;;;;;;;5027560;28;19924;-84
2021/09/15 16:30:00;;;;;;;;;;;;;;;;;;5027063;28;20011;-85
2021/09/15 16:32:28;;;;;;;;;;;;;;;;;;5028025;28;19920;-85
2021/09/15 16:34:53;;;;;;;;;;;;;;;;;;5027123;28;20265;-85
2021/09/15 16:37:19;;;;;;;;;;;;;;;;;;5027864;28;19921;-85
2021/09/15 16:39:45;;;;;;;;;;;;;;;;;;5027936;28;19928;-84
2021/09/15 16:42:10;;;;;;;;;;;;;;;;;;5025811;28;19921;-85
2021/09/15 16:44:36;;;;;;;;;;;;;;;;;;5011167;28;19921;-85
2021/09/15 16:47:01;;;;;;;;;;;;;;;;;;5011202;28;19920;-85
2021/09/15 16:49:26;;;;;;;;;;;;;;;;;;5005692;28;19921;-86